Time;durP1;ratioP1;P1;durP2;ratioP2;P2;SDS_P1;SDS_P2;PMS_P1;PMS_P2;Temp;Humidity;BMP_temperature;BMP_pressure;BME280_temperature;BME280_humidity;BME280_pressure;Samples;Min_cycle;Max_cycle;Signal;HPM_P1;HPM_P2
2022/01/05 00:00:33;;;;;;;3.17;0.80;;;6.00;99.90;;;;;;5071569;28;20934;-53
2022/01/05 00:02:58;;;;;;;3.20;0.65;;;6.10;99.90;;;;;;5070540;28;20417;-53
2022/01/05 00:05:24;;;;;;;3.30;0.80;;;6.00;99.90;;;;;;5074939;28;20443;-53
2022/01/05 00:07:50;;;;;;;3.40;0.90;;;6.00;99.90;;;;;;5067474;28;20406;-53
2022/01/05 00:10:16;;;;;;;3.40;0.90;;;6.00;99.90;;;;;;5070853;28;20386;-53
2022/01/05 00:12:42;;;;;;;3.50;0.80;;;6.00;99.90;;;;;;5072204;28;20403;-53
2022/01/05 00:15:08;;;;;;;3.30;0.70;;;6.00;99.90;;;;;;5054313;28;20411;-53
2022/01/05 00:17:34;;;;;;;3.60;0.80;;;6.10;99.90;;;;;;5073625;28;20464;-53
2022/01/05 00:20:00;;;;;;;3.30;0.80;;;5.90;99.90;;;;;;5072454;28;20383;-53
2022/01/05 00:22:26;;;;;;;3.70;0.70;;;5.90;99.90;;;;;;5075617;28;21058;-53
2022/01/05 00:24:51;;;;;;;3.30;0.80;;;5.90;99.90;;;;;;5072377;28;20391;-53
2022/01/05 00:27:17;;;;;;;3.40;0.70;;;5.90;99.90;;;;;;5072773;28;21311;-52
2022/01/05 00:29:43;;;;;;;3.30;0.90;;;5.80;99.90;;;;;;5073186;28;20829;-53
2022/01/05 00:32:09;;;;;;;3.20;0.60;;;5.70;99.90;;;;;;5071341;28;20388;-54
2022/01/05 00:34:36;;;;;;;3.30;0.60;;;5.80;99.90;;;;;;5070223;28;20382;-53
2022/01/05 00:37:02;;;;;;;3.70;0.68;;;5.70;99.90;;;;;;5069906;28;20379;-53
2022/01/05 00:39:28;;;;;;;3.10;0.70;;;5.80;99.90;;;;;;5071007;28;20375;-53
2022/01/05 00:41:54;;;;;;;2.97;0.50;;;6.30;99.90;;;;;;5072315;28;20422;-53
2022/01/05 00:44:19;;;;;;;3.20;0.50;;;5.90;99.90;;;;;;5075197;28;20395;-54
2022/01/05 00:46:46;;;;;;;3.10;0.60;;;5.90;99.90;;;;;;5054995;28;20478;-53
2022/01/05 00:49:12;;;;;;;3.30;0.55;;;5.90;99.90;;;;;;5069752;28;20399;-54
2022/01/05 00:51:38;;;;;;;2.97;0.50;;;5.80;99.90;;;;;;5073624;28;20732;-54
2022/01/05 00:54:04;;;;;;;2.90;0.43;;;5.80;99.90;;;;;;5072748;28;21055;-54
2022/01/05 00:56:30;;;;;;;3.25;0.60;;;5.90;99.90;;;;;;5072016;28;20841;-54
2022/01/05 00:58:56;;;;;;;3.38;0.63;;;6.00;99.90;;;;;;5070019;28;20498;-53
2022/01/05 01:01:22;;;;;;;2.92;0.50;;;5.90;99.90;;;;;;5070830;28;20376;-53
2022/01/05 01:03:48;;;;;;;2.90;0.50;;;5.70;99.90;;;;;;5070070;28;20384;-54
2022/01/05 01:06:14;;;;;;;3.20;0.57;;;5.80;99.90;;;;;;5071174;28;20376;-53
2022/01/05 01:08:39;;;;;;;2.80;0.40;;;5.80;99.90;;;;;;5070998;28;20404;-53
2022/01/05 01:11:05;;;;;;;3.00;0.50;;;5.80;99.90;;;;;;5076978;28;20382;-53
2022/01/05 01:13:31;;;;;;;3.20;0.50;;;5.10;99.90;;;;;;5080128;28;20395;-54
2022/01/05 01:15:57;;;;;;;3.92;0.50;;;5.70;99.90;;;;;;5084034;28;20418;-54
2022/01/05 01:18:23;;;;;;;3.10;0.52;;;5.70;99.90;;;;;;5075632;28;20411;-54
2022/01/05 01:20:49;;;;;;;3.00;0.40;;;5.70;99.90;;;;;;5070129;28;20430;-54
2022/01/05 01:23:18;;;;;;;2.90;0.40;;;5.70;99.90;;;;;;5084241;28;20378;-54
2022/01/05 01:25:44;;;;;;;3.05;0.38;;;5.70;99.90;;;;;;5090964;28;20385;-53
2022/01/05 01:28:11;;;;;;;3.40;0.40;;;4.50;99.90;;;;;;5090097;28;20390;-54
2022/01/05 01:30:37;;;;;;;3.60;0.40;;;5.70;99.90;;;;;;5090593;28;20461;-53
2022/01/05 01:33:03;;;;;;;3.17;0.30;;;5.70;99.90;;;;;;5090130;28;20623;-54
2022/01/05 01:35:28;;;;;;;2.85;0.40;;;5.60;99.90;;;;;;5090790;28;20701;-53
2022/01/05 01:37:55;;;;;;;3.20;0.43;;;5.60;99.90;;;;;;5089621;28;20409;-54
2022/01/05 01:40:21;;;;;;;3.00;0.50;;;5.70;99.90;;;;;;5090679;28;20393;-53
2022/01/05 01:42:47;;;;;;;3.10;0.50;;;5.70;99.90;;;;;;5090523;28;20370;-53
2022/01/05 01:45:12;;;;;;;2.90;0.40;;;5.70;99.90;;;;;;5090084;28;20412;-54
2022/01/05 01:47:39;;;;;;;3.00;0.50;;;5.80;99.90;;;;;;5090471;28;20739;-53
2022/01/05 01:50:07;;;;;;;2.70;0.30;;;5.80;99.90;;;;;;5089799;28;20373;-54
2022/01/05 01:52:33;;;;;;;2.90;0.40;;;5.70;99.90;;;;;;5089873;28;20406;-53
2022/01/05 01:54:58;;;;;;;2.92;0.40;;;5.80;99.90;;;;;;5089839;28;20379;-53
2022/01/05 01:57:27;;;;;;;3.00;0.40;;;5.70;99.90;;;;;;5090281;28;20932;-53
2022/01/05 01:59:52;;;;;;;3.13;0.50;;;5.80;99.90;;;;;;5089320;28;20883;-54
2022/01/05 02:02:18;;;;;;;3.00;0.40;;;6.50;99.90;;;;;;5090135;28;20453;-53
2022/01/05 02:04:44;;;;;;;3.10;0.50;;;5.90;99.90;;;;;;5090350;28;20370;-53
2022/01/05 02:07:10;;;;;;;3.00;0.40;;;5.90;99.90;;;;;;5089380;28;20370;-53
2022/01/05 02:09:37;;;;;;;2.90;0.40;;;6.00;99.90;;;;;;5071683;28;20769;-53
2022/01/05 02:12:05;;;;;;;3.85;0.45;;;5.90;99.90;;;;;;5061215;28;20443;-53
2022/01/05 02:14:31;;;;;;;3.00;0.50;;;5.90;99.90;;;;;;5050311;28;20427;-53
2022/01/05 02:16:58;;;;;;;2.80;0.40;;;5.90;99.90;;;;;;5068378;28;20396;-53
2022/01/05 02:19:24;;;;;;;2.80;0.40;;;5.90;99.90;;;;;;5069800;28;20392;-53
2022/01/05 02:21:50;;;;;;;4.18;0.50;;;6.00;99.90;;;;;;5064916;28;20402;-52
2022/01/05 02:24:16;;;;;;;3.00;0.50;;;6.20;99.90;;;;;;5055787;28;20392;-53
2022/01/05 02:26:42;;;;;;;2.80;0.40;;;6.00;99.90;;;;;;5053929;28;20408;-53
2022/01/05 02:29:07;;;;;;;3.00;0.40;;;6.00;99.90;;;;;;5062793;28;20379;-53
2022/01/05 02:31:34;;;;;;;2.90;0.40;;;6.00;99.90;;;;;;5051200;28;20373;-53
2022/01/05 02:34:00;;;;;;;3.00;0.50;;;6.00;99.90;;;;;;5059331;28;20395;-53
2022/01/05 02:36:26;;;;;;;3.00;0.50;;;6.10;99.90;;;;;;5069368;28;20447;-51
2022/01/05 02:38:53;;;;;;;3.00;0.50;;;6.20;99.90;;;;;;5068557;28;20407;-51
2022/01/05 02:41:19;;;;;;;3.10;0.50;;;6.20;99.90;;;;;;5069694;28;20372;-51
2022/01/05 02:43:45;;;;;;;2.80;0.30;;;6.20;99.90;;;;;;5069261;28;20372;-51
2022/01/05 02:46:20;;;;;;;3.50;0.50;;;6.30;99.90;;;;;;5068877;28;20477;-51
2022/01/05 02:48:47;;;;;;;2.80;0.40;;;6.30;99.90;;;;;;5069354;28;20383;-51
2022/01/05 02:51:13;;;;;;;2.90;0.40;;;6.20;99.90;;;;;;5068757;28;20394;-51
2022/01/05 02:53:39;;;;;;;3.00;0.40;;;6.20;99.90;;;;;;5069244;28;20860;-51
2022/01/05 02:56:06;;;;;;;3.30;0.47;;;6.20;99.90;;;;;;5068524;28;20466;-52
2022/01/05 02:58:31;;;;;;;2.97;0.50;;;6.20;99.90;;;;;;5072622;28;20411;-51
2022/01/05 03:00:57;;;;;;;2.97;0.50;;;6.10;99.90;;;;;;5072500;28;20421;-51
2022/01/05 03:03:23;;;;;;;3.30;0.50;;;6.20;99.90;;;;;;5073395;28;20371;-51
2022/01/05 03:05:48;;;;;;;2.88;0.50;;;6.20;99.90;;;;;;5073004;28;20391;-53
2022/01/05 03:08:14;;;;;;;2.90;0.50;;;6.10;99.90;;;;;;5072856;28;20384;-53
2022/01/05 03:10:40;;;;;;;3.50;0.47;;;6.20;99.90;;;;;;5073661;28;20422;-53
2022/01/05 03:13:06;;;;;;;3.40;0.40;;;6.10;99.90;;;;;;5072478;28;20380;-53
2022/01/05 03:15:35;;;;;;;3.00;0.50;;;6.20;99.90;;;;;;5072956;28;20415;-53
2022/01/05 03:18:04;;;;;;;3.03;0.40;;;6.10;99.90;;;;;;5072202;28;20503;-53
2022/01/05 03:20:30;;;;;;;2.90;0.50;;;6.10;99.90;;;;;;5073049;28;20394;-53
2022/01/05 03:23:00;;;;;;;2.90;0.40;;;6.10;99.90;;;;;;5072253;28;20380;-53
2022/01/05 03:25:26;;;;;;;3.17;0.50;;;6.10;99.90;;;;;;5073013;28;20371;-53
2022/01/05 03:27:53;;;;;;;3.00;0.50;;;6.00;99.90;;;;;;5072271;28;20437;-54
2022/01/05 03:30:28;;;;;;;3.20;0.60;;;6.10;99.90;;;;;;5072562;28;20927;-53
2022/01/05 03:35:29;;;;;;;3.00;0.50;;;6.10;99.90;;;;;;5072676;28;20388;-51
2022/01/05 03:37:55;;;;;;;3.10;0.60;;;6.10;99.90;;;;;;5072128;28;20444;-53
2022/01/05 03:40:22;;;;;;;4.70;0.50;;;6.10;99.90;;;;;;5073158;28;20387;-53
2022/01/05 03:42:48;;;;;;;3.80;0.68;;;6.10;99.90;;;;;;5072411;28;20857;-53
2022/01/05 03:45:14;;;;;;;3.30;0.70;;;6.20;99.90;;;;;;5072258;28;20461;-53
2022/01/05 03:47:39;;;;;;;2.90;0.50;;;6.20;99.90;;;;;;5072558;28;20729;-54
2022/01/05 03:50:05;;;;;;;3.13;0.50;;;6.10;99.90;;;;;;5071770;28;20705;-53
2022/01/05 03:52:32;;;;;;;4.28;1.17;;;6.10;99.90;;;;;;5054383;28;20482;-53
2022/01/05 03:54:58;;;;;;;3.10;0.47;;;6.10;99.90;;;;;;5071744;28;20388;-53
2022/01/05 03:57:25;;;;;;;3.10;0.50;;;6.00;99.90;;;;;;5072281;28;20498;-52
2022/01/05 03:59:51;;;;;;;3.20;0.50;;;6.10;99.90;;;;;;5071665;28;20849;-52
2022/01/05 04:02:17;;;;;;;3.20;0.60;;;6.20;99.90;;;;;;5072301;28;20380;-51
2022/01/05 04:04:43;;;;;;;2.93;0.57;;;6.20;99.90;;;;;;5072041;28;20386;-51
2022/01/05 04:07:09;;;;;;;3.70;0.40;;;6.30;99.90;;;;;;5071420;28;20474;-51
2022/01/05 04:09:35;;;;;;;3.50;0.90;;;6.20;99.90;;;;;;5072147;28;20379;-51
2022/01/05 04:12:00;;;;;;;3.40;0.73;;;6.20;99.90;;;;;;5063958;28;20409;-52
2022/01/05 04:14:26;;;;;;;4.60;0.80;;;6.20;99.90;;;;;;5059014;28;20405;-51
2022/01/05 04:16:52;;;;;;;3.50;0.90;;;6.20;99.90;;;;;;5062319;28;20428;-52
2022/01/05 04:19:19;;;;;;;3.40;0.63;;;6.20;99.90;;;;;;5051696;28;20408;-51
2022/01/05 04:21:46;;;;;;;3.85;0.70;;;6.20;99.90;;;;;;5051782;28;20827;-52
2022/01/05 04:24:11;;;;;;;4.00;0.50;;;6.20;99.90;;;;;;5050820;28;21172;-52
2022/01/05 04:26:37;;;;;;;3.40;0.70;;;6.20;99.90;;;;;;5051917;28;20382;-51
2022/01/05 04:29:03;;;;;;;3.80;0.70;;;6.10;99.90;;;;;;5050908;28;20413;-52
2022/01/05 04:31:28;;;;;;;3.80;0.80;;;6.10;99.90;;;;;;5051743;28;20393;-52
2022/01/05 04:33:54;;;;;;;3.10;0.60;;;6.00;99.90;;;;;;5056531;28;20468;-51
2022/01/05 04:36:19;;;;;;;3.03;0.60;;;6.10;99.90;;;;;;5060486;28;20875;-51
2022/01/05 04:38:45;;;;;;;3.30;0.60;;;6.10;99.90;;;;;;5061161;28;20495;-52
2022/01/05 04:41:11;;;;;;;2.90;0.50;;;6.20;99.90;;;;;;5070671;28;20383;-53
2022/01/05 04:43:36;;;;;;;3.70;0.40;;;5.80;99.90;;;;;;5071202;28;20872;-53
2022/01/05 04:46:02;;;;;;;3.20;0.60;;;5.80;99.90;;;;;;5070429;28;20418;-53
2022/01/05 04:48:29;;;;;;;3.15;0.70;;;5.80;99.90;;;;;;5071633;28;20864;-53
2022/01/05 04:50:55;;;;;;;3.30;0.73;;;5.80;99.90;;;;;;5070658;28;20718;-53
2022/01/05 04:53:20;;;;;;;3.90;0.70;;;5.80;99.90;;;;;;5071993;28;20383;-53
2022/01/05 04:55:46;;;;;;;3.60;0.90;;;5.90;99.90;;;;;;5071242;28;20882;-53
2022/01/05 04:58:12;;;;;;;3.22;0.82;;;5.80;99.90;;;;;;5070453;28;20419;-53
2022/01/05 05:00:38;;;;;;;3.10;0.70;;;5.80;99.90;;;;;;5071347;28;20391;-53
2022/01/05 05:03:03;;;;;;;3.40;0.93;;;5.70;99.90;;;;;;5070233;28;20375;-53
2022/01/05 05:05:29;;;;;;;3.58;0.90;;;7.10;99.90;;;;;;5071413;28;20383;-53
2022/01/05 05:07:55;;;;;;;3.10;0.70;;;5.90;99.90;;;;;;5070286;28;20384;-53
2022/01/05 05:10:20;;;;;;;4.20;0.70;;;6.30;99.90;;;;;;5071143;28;20417;-53
2022/01/05 05:12:46;;;;;;;3.00;0.65;;;4.90;99.90;;;;;;5070831;28;20889;-53
2022/01/05 05:15:12;;;;;;;3.60;1.00;;;4.20;99.90;;;;;;5068981;28;20415;-53
2022/01/05 05:17:37;;;;;;;3.20;0.80;;;3.70;99.90;;;;;;5070525;28;20458;-53
2022/01/05 05:20:03;;;;;;;3.73;1.17;;;3.50;99.90;;;;;;5068846;28;20409;-51
2022/01/05 05:22:29;;;;;;;3.90;1.30;;;3.30;99.90;;;;;;5058343;28;20759;-54
2022/01/05 05:24:55;;;;;;;5.87;1.70;;;3.30;99.90;;;;;;5069677;28;20494;-53
2022/01/05 05:27:21;;;;;;;4.07;1.30;;;3.20;99.90;;;;;;5070047;28;20372;-54
2022/01/05 05:29:46;;;;;;;4.18;1.40;;;3.10;99.90;;;;;;5069756;28;20379;-52
2022/01/05 05:32:12;;;;;;;4.50;1.50;;;2.80;99.90;;;;;;5069308;28;20376;-51
2022/01/05 05:34:38;;;;;;;5.00;1.83;;;2.80;99.90;;;;;;5069771;28;20741;-51
2022/01/05 05:37:04;;;;;;;6.20;1.85;;;2.80;99.90;;;;;;5069102;28;20434;-51
2022/01/05 05:39:29;;;;;;;4.73;1.80;;;2.70;99.90;;;;;;5070021;28;20422;-53
2022/01/05 05:41:55;;;;;;;6.20;2.20;;;3.80;99.90;;;;;;5069155;28;20768;-53
2022/01/05 05:44:20;;;;;;;5.13;1.83;;;3.00;99.90;;;;;;5069828;28;20399;-54
2022/01/05 05:46:47;;;;;;;5.10;2.20;;;3.00;99.90;;;;;;5033268;28;20468;-53
2022/01/05 05:49:13;;;;;;;5.50;2.22;;;3.60;99.90;;;;;;5065725;28;20417;-53
2022/01/05 05:51:39;;;;;;;5.55;2.40;;;3.10;99.90;;;;;;5068596;28;20380;-53
2022/01/05 05:54:04;;;;;;;5.50;2.17;;;3.10;99.90;;;;;;5069101;28;20387;-53
2022/01/05 05:56:30;;;;;;;5.28;2.00;;;3.20;99.90;;;;;;5069507;28;20899;-53
2022/01/05 05:58:56;;;;;;;7.78;2.65;;;3.10;99.90;;;;;;5068373;28;20417;-53
2022/01/05 06:01:21;;;;;;;6.60;2.37;;;3.10;99.90;;;;;;5065327;28;22409;-53
2022/01/05 06:03:47;;;;;;;5.72;2.40;;;3.20;99.90;;;;;;5069719;28;20845;-53
2022/01/05 06:06:12;;;;;;;8.27;2.70;;;3.20;99.90;;;;;;5066085;28;20849;-53
2022/01/05 06:08:39;;;;;;;6.23;2.37;;;3.40;99.90;;;;;;5061092;28;20405;-54
2022/01/05 06:11:06;;;;;;;6.13;2.60;;;3.50;99.90;;;;;;5064664;28;20372;-54
2022/01/05 06:13:32;;;;;;;5.90;2.40;;;3.50;99.90;;;;;;5069147;28;20455;-54
2022/01/05 06:15:57;;;;;;;6.17;2.30;;;3.60;99.90;;;;;;5065758;28;20485;-54
2022/01/05 06:18:23;;;;;;;6.80;2.30;;;3.60;99.90;;;;;;5069045;28;20407;-53
2022/01/05 06:20:49;;;;;;;5.23;2.27;;;3.80;99.90;;;;;;5066524;28;20403;-53
2022/01/05 06:23:14;;;;;;;5.68;2.25;;;3.70;99.90;;;;;;5068548;28;20925;-53
2022/01/05 06:25:40;;;;;;;5.20;2.47;;;3.70;99.90;;;;;;5069043;28;20379;-53
2022/01/05 06:28:11;;;;;;;4.90;1.80;;;5.30;99.90;;;;;;5065715;28;20460;-54
2022/01/05 06:30:40;;;;;;;6.50;2.05;;;3.80;99.90;;;;;;5069340;28;20382;-53
2022/01/05 06:33:06;;;;;;;6.15;1.80;;;3.60;99.90;;;;;;5067475;28;20462;-53
2022/01/05 06:35:32;;;;;;;5.55;1.80;;;3.50;99.90;;;;;;5069300;28;20479;-53
2022/01/05 06:37:58;;;;;;;5.35;2.03;;;3.50;99.90;;;;;;5068289;28;20410;-53
2022/01/05 06:40:24;;;;;;;4.38;1.38;;;3.60;99.90;;;;;;5068995;28;20462;-53
2022/01/05 06:42:50;;;;;;;4.70;1.80;;;3.60;99.90;;;;;;5068789;28;20479;-53
2022/01/05 06:45:16;;;;;;;5.47;1.70;;;3.70;99.90;;;;;;5068416;28;20395;-53
2022/01/05 06:47:41;;;;;;;6.50;1.70;;;3.60;99.90;;;;;;5068972;28;20823;-53
2022/01/05 06:50:09;;;;;;;5.90;1.40;;;3.60;99.90;;;;;;5068458;28;20380;-53
2022/01/05 06:52:34;;;;;;;3.95;1.20;;;3.50;99.90;;;;;;5068621;28;20786;-50
2022/01/05 06:55:00;;;;;;;4.10;1.20;;;5.30;99.90;;;;;;5068640;28;20376;-51
2022/01/05 06:57:26;;;;;;;4.63;1.35;;;5.10;99.90;;;;;;5069397;28;20566;-53
2022/01/05 06:59:51;;;;;;;4.28;1.30;;;3.20;99.90;;;;;;5069105;28;20787;-53
2022/01/05 07:02:17;;;;;;;5.50;1.30;;;3.10;99.90;;;;;;5069015;28;20380;-50
2022/01/05 07:04:43;;;;;;;4.10;1.20;;;4.10;99.90;;;;;;5063651;28;20404;-55
2022/01/05 07:07:09;;;;;;;3.80;1.02;;;3.10;99.90;;;;;;5062630;28;20405;-50
2022/01/05 07:09:35;;;;;;;5.13;1.20;;;3.10;99.90;;;;;;5057970;28;20407;-50
2022/01/05 07:12:00;;;;;;;4.23;1.40;;;3.30;99.90;;;;;;5052456;28;20385;-51
2022/01/05 07:14:26;;;;;;;4.65;1.20;;;3.20;99.90;;;;;;5049907;28;20475;-51
2022/01/05 07:16:52;;;;;;;3.90;1.20;;;3.30;99.90;;;;;;5048727;28;20751;-53
2022/01/05 07:19:19;;;;;;;3.75;1.10;;;3.20;99.90;;;;;;5048751;28;20447;-50
2022/01/05 07:21:46;;;;;;;4.15;1.50;;;4.10;99.90;;;;;;5049035;28;20863;-50
2022/01/05 07:24:16;;;;;;;4.93;1.80;;;2.80;99.90;;;;;;5067591;28;21267;-48
2022/01/05 07:26:41;;;;;;;4.47;1.65;;;3.70;99.90;;;;;;5051471;28;20392;-50
2022/01/05 07:29:07;;;;;;;4.70;1.63;;;2.80;99.90;;;;;;5068328;28;20380;-48
2022/01/05 07:31:33;;;;;;;8.50;1.90;;;2.90;99.90;;;;;;5068626;28;20918;-52
2022/01/05 07:33:59;;;;;;;6.03;1.70;;;2.90;99.90;;;;;;5049788;28;20394;-48
2022/01/05 07:36:25;;;;;;;6.70;2.30;;;5.10;99.90;;;;;;5068384;28;20383;-49
2022/01/05 07:38:51;;;;;;;6.10;2.25;;;3.40;99.90;;;;;;5060269;28;20407;-49
2022/01/05 07:41:17;;;;;;;6.50;1.50;;;3.40;99.90;;;;;;5066946;28;20394;-49
2022/01/05 07:43:42;;;;;;;5.38;2.03;;;3.40;99.90;;;;;;5052210;28;20476;-49
2022/01/05 07:46:08;;;;;;;5.95;1.67;;;3.40;99.90;;;;;;5069594;28;20419;-52
2022/01/05 07:48:34;;;;;;;4.83;1.40;;;3.30;99.90;;;;;;5072179;28;20414;-52
2022/01/05 07:50:59;;;;;;;7.80;1.80;;;3.00;99.90;;;;;;5068564;28;20807;-51
2022/01/05 07:53:25;;;;;;;6.90;1.50;;;3.00;99.90;;;;;;5064440;28;20718;-51
2022/01/05 07:55:51;;;;;;;6.80;2.17;;;2.90;99.90;;;;;;5066952;28;20861;-51
2022/01/05 07:58:16;;;;;;;5.95;2.20;;;4.50;99.90;;;;;;5071202;28;21220;-52
2022/01/05 08:00:42;;;;;;;4.95;1.60;;;4.50;99.90;;;;;;5071763;28;20430;-52
2022/01/05 08:03:08;;;;;;;7.20;2.10;;;4.50;99.90;;;;;;5071581;28;20408;-52
2022/01/05 08:05:33;;;;;;;7.00;1.95;;;2.70;99.90;;;;;;5063218;28;20446;-51
2022/01/05 08:07:59;;;;;;;5.70;1.50;;;3.20;99.90;;;;;;5063316;28;20385;-52
2022/01/05 08:10:25;;;;;;;8.80;2.20;;;2.70;99.90;;;;;;5052170;28;20403;-51
2022/01/05 08:12:50;;;;;;;8.48;2.80;;;2.70;99.90;;;;;;5068473;28;20513;-52
2022/01/05 08:15:16;;;;;;;8.57;3.25;;;2.70;99.90;;;;;;5069321;28;20530;-51
2022/01/05 08:17:48;;;;;;;5.90;2.20;;;1.80;99.90;;;;;;5059887;28;20897;-51
2022/01/05 08:20:13;;;;;;;10.45;3.10;;;4.70;99.90;;;;;;5068426;28;20430;-51
2022/01/05 08:22:45;;;;;;;6.10;2.40;;;3.00;99.90;;;;;;5069937;28;20435;-51
2022/01/05 08:25:13;;;;;;;7.55;2.65;;;2.90;99.90;;;;;;5060564;28;20389;-51
2022/01/05 08:27:46;;;;;;;6.80;2.60;;;4.00;99.90;;;;;;5073536;28;20415;-52
2022/01/05 08:30:23;;;;;;;9.13;2.80;;;4.40;99.90;;;;;;5056565;28;20778;-51
2022/01/05 08:32:49;;;;;;;6.50;2.75;;;2.90;99.90;;;;;;5059201;28;20840;-51
2022/01/05 08:35:17;;;;;;;7.72;3.03;;;4.70;99.90;;;;;;5069412;28;20951;-51
2022/01/05 08:37:46;;;;;;;7.90;2.97;;;2.90;99.90;;;;;;5056510;28;20417;-51
2022/01/05 08:40:18;;;;;;;10.83;3.13;;;2.70;99.90;;;;;;5054783;28;20432;-51
2022/01/05 08:42:44;;;;;;;9.65;3.60;;;2.70;99.90;;;;;;5053878;28;20427;-51
2022/01/05 08:45:11;;;;;;;7.43;2.35;;;2.70;99.90;;;;;;5059114;28;20413;-51
2022/01/05 08:47:37;;;;;;;7.15;3.25;;;3.80;99.90;;;;;;5054831;28;20454;-51
2022/01/05 08:50:03;;;;;;;6.50;2.17;;;3.10;99.90;;;;;;5052128;28;20781;-51
2022/01/05 08:52:28;;;;;;;6.70;2.20;;;2.50;99.90;;;;;;5048325;28;20439;-51
2022/01/05 08:54:54;;;;;;;8.80;2.60;;;2.50;99.90;;;;;;5051394;28;20445;-50
2022/01/05 08:57:21;;;;;;;5.15;1.95;;;0.70;99.90;;;;;;5062471;28;20406;-51
2022/01/05 08:59:47;;;;;;;7.73;2.67;;;2.40;99.90;;;;;;5053238;28;20444;-51
2022/01/05 09:02:13;;;;;;;6.20;2.10;;;2.70;99.90;;;;;;5058052;28;20585;-51
2022/01/05 09:04:39;;;;;;;7.78;2.20;;;3.30;99.90;;;;;;5054884;28;20377;-53
2022/01/05 09:07:05;;;;;;;7.22;1.80;;;3.90;99.90;;;;;;5054313;28;20407;-53
2022/01/05 09:09:31;;;;;;;8.20;1.90;;;4.30;99.90;;;;;;5062294;28;20444;-53
2022/01/05 09:11:57;;;;;;;5.67;2.20;;;4.20;99.90;;;;;;5067811;28;20468;-51
2022/01/05 09:14:22;;;;;;;6.27;2.10;;;3.40;99.90;;;;;;5063975;28;20455;-51
2022/01/05 09:16:48;;;;;;;6.60;1.80;;;3.00;99.90;;;;;;5069036;28;20531;-51
2022/01/05 09:19:14;;;;;;;7.47;2.22;;;4.30;99.90;;;;;;5054493;28;21014;-51
2022/01/05 09:21:40;;;;;;;6.17;2.10;;;2.80;99.90;;;;;;5059888;28;20394;-51
2022/01/05 09:24:06;;;;;;;8.13;3.00;;;2.80;99.90;;;;;;5053614;28;20413;-53
2022/01/05 09:26:32;;;;;;;5.80;1.60;;;3.80;99.90;;;;;;5061754;28;20397;-53
2022/01/05 09:28:58;;;;;;;7.55;1.98;;;4.30;99.90;;;;;;5057850;28;20405;-53
2022/01/05 09:31:23;;;;;;;6.35;1.80;;;6.10;99.90;;;;;;5060339;28;20405;-53
2022/01/05 09:33:49;;;;;;;7.00;2.00;;;4.10;99.90;;;;;;5055159;28;20392;-53
2022/01/05 09:36:29;;;;;;;7.77;2.60;;;3.60;99.90;;;;;;5070835;28;20509;-52
2022/01/05 09:41:58;;;;;;;9.18;2.47;;;4.30;99.90;;;;;;5056855;28;20514;-53
2022/01/05 09:44:33;;;;;;;8.07;1.83;;;3.50;99.90;;;;;;5050627;28;20436;-51
2022/01/05 09:47:33;;;;;;;5.80;1.90;;;3.10;99.90;;;;;;5054356;28;20441;-51
2022/01/05 09:50:07;;;;;;;7.97;2.03;;;2.90;99.90;;;;;;5058561;28;20405;-51
2022/01/05 09:52:37;;;;;;;10.07;2.00;;;2.70;99.90;;;;;;5057505;28;20420;-51
2022/01/05 09:55:05;;;;;;;6.97;2.10;;;2.90;99.90;;;;;;5063380;28;20409;-51
2022/01/05 09:57:32;;;;;;;6.18;1.85;;;3.20;99.90;;;;;;5058990;28;20882;-51
2022/01/05 09:59:58;;;;;;;7.07;2.00;;;3.10;99.90;;;;;;5059292;28;20405;-51
2022/01/05 10:02:24;;;;;;;9.38;2.20;;;3.00;99.90;;;;;;5065938;28;20392;-51
2022/01/05 10:04:50;;;;;;;7.30;2.47;;;3.10;99.90;;;;;;5059700;28;20397;-53
2022/01/05 10:07:16;;;;;;;8.82;2.40;;;4.00;99.90;;;;;;5060474;28;20579;-53
2022/01/05 10:09:43;;;;;;;6.25;1.83;;;4.30;99.90;;;;;;5055965;28;20397;-52
2022/01/05 10:12:10;;;;;;;8.88;1.90;;;4.20;99.90;;;;;;5043689;28;20469;-53
2022/01/05 10:14:45;;;;;;;7.55;2.00;;;4.00;99.90;;;;;;5055539;28;20415;-53
2022/01/05 10:17:16;;;;;;;10.20;2.40;;;3.90;99.90;;;;;;5063222;28;20437;-53
2022/01/05 10:19:44;;;;;;;10.88;2.13;;;3.80;99.90;;;;;;5059763;28;20457;-51
2022/01/05 10:22:32;;;;;;;8.65;1.92;;;3.60;99.90;;;;;;5059394;28;20480;-53
2022/01/05 10:24:58;;;;;;;9.75;2.20;;;4.40;99.90;;;;;;5051876;28;20405;-53
2022/01/05 10:27:26;;;;;;;7.47;2.45;;;4.20;99.90;;;;;;5056160;28;20412;-53
2022/01/05 10:29:56;;;;;;;8.30;1.40;;;4.60;99.90;;;;;;5059378;28;20891;-53
2022/01/05 10:32:23;;;;;;;7.72;1.90;;;3.90;99.90;;;;;;5058595;28;20504;-51
2022/01/05 10:35:02;;;;;;;5.72;2.05;;;3.70;99.90;;;;;;5055825;28;20397;-53
2022/01/05 10:37:28;;;;;;;6.43;2.00;;;4.20;99.90;;;;;;5066372;28;20994;-53
2022/01/05 10:40:23;;;;;;;8.52;2.83;;;4.10;99.90;;;;;;5068546;28;20483;-51
2022/01/05 10:42:51;;;;;;;7.57;2.10;;;3.60;99.90;;;;;;5035033;28;20405;-51
2022/01/05 10:45:22;;;;;;;6.88;1.88;;;3.80;99.90;;;;;;5057810;28;20436;-51
2022/01/05 10:48:25;;;;;;;10.27;2.40;;;3.60;99.90;;;;;;5056690;28;21182;-51
2022/01/05 10:51:03;;;;;;;10.15;2.38;;;3.70;99.90;;;;;;5016849;28;20448;-51
2022/01/05 10:53:29;;;;;;;8.30;2.33;;;3.60;99.90;;;;;;5048640;28;20839;-53
2022/01/05 10:55:54;;;;;;;6.80;2.67;;;3.50;99.90;;;;;;5064515;28;20475;-52
2022/01/05 10:58:20;;;;;;;7.40;2.23;;;3.80;99.90;;;;;;5060610;28;20417;-53
2022/01/05 11:00:47;;;;;;;8.32;1.95;;;3.70;99.90;;;;;;5055816;28;20401;-53
2022/01/05 11:03:35;;;;;;;8.73;2.50;;;3.50;99.90;;;;;;5037170;28;20405;-51
2022/01/05 11:06:15;;;;;;;9.30;2.50;;;3.30;99.90;;;;;;5060808;28;20395;-51
2022/01/05 11:08:56;;;;;;;9.10;2.20;;;3.40;99.90;;;;;;5051931;28;20413;-52
2022/01/05 11:11:42;;;;;;;11.07;2.60;;;3.50;99.90;;;;;;5048418;28;20403;-52
2022/01/05 11:14:11;;;;;;;7.30;2.10;;;4.90;99.90;;;;;;5060657;28;20505;-52
2022/01/05 11:16:41;;;;;;;10.80;3.70;;;3.70;99.90;;;;;;5050639;28;20432;-52
2022/01/05 11:19:27;;;;;;;12.30;2.85;;;3.90;99.90;;;;;;5054812;28;20405;-57
2022/01/05 11:22:08;;;;;;;9.18;2.38;;;3.90;99.90;;;;;;5059859;28;20433;-52
2022/01/05 11:24:43;;;;;;;9.65;2.80;;;3.90;99.90;;;;;;5070295;28;20398;-52
2022/01/05 11:27:15;;;;;;;9.30;2.30;;;4.40;99.90;;;;;;5072685;28;20550;-52
2022/01/05 11:29:41;;;;;;;12.20;2.20;;;3.70;99.90;;;;;;5065189;28;20515;-52
2022/01/05 11:32:09;;;;;;;9.88;2.80;;;3.50;99.90;;;;;;5064865;28;20492;-52
2022/01/05 11:34:36;;;;;;;8.68;2.10;;;3.40;99.90;;;;;;5075600;28;20405;-51
2022/01/05 11:37:02;;;;;;;8.50;2.05;;;3.20;99.90;;;;;;5069428;28;20406;-52
2022/01/05 11:39:30;;;;;;;8.43;2.80;;;3.40;99.90;;;;;;5067046;28;20417;-52
2022/01/05 11:41:58;;;;;;;10.30;2.50;;;4.60;99.90;;;;;;5056369;28;21450;-52
2022/01/05 11:44:28;;;;;;;12.15;2.50;;;3.80;99.90;;;;;;5056874;28;20415;-53
2022/01/05 11:46:54;;;;;;;9.50;2.40;;;3.50;99.90;;;;;;5055476;28;20458;-54
2022/01/05 11:49:28;;;;;;;11.23;2.40;;;3.70;99.90;;;;;;5062935;28;20538;-52
2022/01/05 11:51:56;;;;;;;6.38;2.10;;;3.80;99.90;;;;;;5068518;28;20460;-52
2022/01/05 11:54:31;;;;;;;12.83;3.10;;;4.00;99.90;;;;;;5066567;28;20405;-54
2022/01/05 11:57:11;;;;;;;12.37;3.53;;;4.10;99.90;;;;;;5064013;28;20502;-55
2022/01/05 11:59:39;;;;;;;10.27;2.58;;;4.00;99.90;;;;;;5070169;28;21125;-54
2022/01/05 12:02:08;;;;;;;9.40;2.50;;;3.80;99.90;;;;;;5073697;28;20471;-52
2022/01/05 12:04:53;;;;;;;7.55;2.30;;;3.50;99.90;;;;;;5064104;28;20923;-52
2022/01/05 12:07:37;;;;;;;7.50;2.20;;;3.40;99.90;;;;;;5064828;28;20398;-52
2022/01/05 12:10:28;;;;;;;7.73;1.97;;;4.40;99.90;;;;;;5055344;28;20465;-53
2022/01/05 12:13:04;;;;;;;9.95;2.60;;;3.40;99.90;;;;;;5067192;28;20404;-52
2022/01/05 12:15:51;;;;;;;8.70;1.73;;;5.20;99.90;;;;;;5054710;28;20447;-52
2022/01/05 12:18:29;;;;;;;7.20;1.60;;;3.20;99.90;;;;;;5057909;28;20477;-52
2022/01/05 12:20:57;;;;;;;8.70;2.30;;;3.40;99.90;;;;;;5072089;28;20425;-53
2022/01/05 12:23:26;;;;;;;7.30;1.75;;;2.90;99.90;;;;;;5051527;28;20450;-52
2022/01/05 12:26:04;;;;;;;10.98;1.90;;;3.00;99.90;;;;;;5057328;28;20413;-52
2022/01/05 12:28:33;;;;;;;7.38;1.60;;;3.10;99.90;;;;;;5056960;28;20772;-52
2022/01/05 12:30:59;;;;;;;9.20;2.08;;;3.00;99.90;;;;;;5056641;28;20398;-52
2022/01/05 12:33:25;;;;;;;6.72;1.80;;;3.00;99.90;;;;;;5054783;28;20463;-52
2022/01/05 12:36:34;;;;;;;9.18;2.00;;;3.00;99.90;;;;;;5056012;28;20399;-52
2022/01/05 12:39:00;;;;;;;5.57;1.50;;;3.20;99.90;;;;;;5029100;28;20512;-52
2022/01/05 12:41:37;;;;;;;5.85;1.50;;;1.80;99.90;;;;;;5060144;28;20762;-54
2022/01/05 12:44:30;;;;;;;6.93;2.05;;;3.30;99.90;;;;;;5050315;28;20493;-54
2022/01/05 12:46:57;;;;;;;7.07;1.90;;;3.50;99.90;;;;;;5050912;28;20449;-54
2022/01/05 12:49:32;;;;;;;6.85;1.50;;;3.40;99.90;;;;;;5077611;28;20405;-53
2022/01/05 12:52:17;;;;;;;6.10;1.60;;;3.30;99.90;;;;;;5069307;28;20423;-52
2022/01/05 12:54:45;;;;;;;8.07;1.58;;;3.50;99.90;;;;;;5063744;28;20394;-53
2022/01/05 12:57:21;;;;;;;7.73;1.50;;;3.70;99.90;;;;;;5060661;28;20479;-53
2022/01/05 12:59:49;;;;;;;7.55;1.67;;;3.90;99.90;;;;;;5069404;28;20403;-53
2022/01/05 13:02:23;;;;;;;6.10;1.65;;;4.00;99.90;;;;;;5071201;28;20392;-53
2022/01/05 13:04:50;;;;;;;8.05;1.90;;;5.30;99.90;;;;;;5061460;28;20465;-53